Pella, IA

6:05 AM CDT on March 28, 2017 (GMT -0500)
Pella Municipal

Weather History for KPEA - October, 2012

Change the Weather History Date:

Friday, October 19, 2012

  Actual Average (KOXV) Record (KOXV)
Temperature  
Mean Temperature 47 °F -  
Max Temperature 51 °F 60 °F 84 °F (2003)
Min Temperature 43 °F 38 °F 17 °F (1972)
Degree Days  
Heating Degree Days 18    
Moisture  
Dew Point 43 °F    
Average Humidity 88    
Maximum Humidity 96    
Minimum Humidity 74    
Precipitation  
Precipitation 0.00 in - - ()
Sea Level Pressure  
Sea Level Pressure 29.62 in    
Wind  
Wind Speed 12 mph (WNW)    
Max Wind Speed 16 mph    
Max Gust Speed 26 mph    
Visibility 8 miles    
Events Rain    
Averages and records for this station are not official NWS values.
T = Trace of Precipitation, MM = Missing Value Source: NWS Daily Summary

Daily Weather History Graph

Daily Weather History Graph

Search for Another Location

Airport or City:

Trip Planner

Search our weather history database for the weather conditions in past years. The results will help you decide how hot, cold, wet, or windy it might be!

Date:

Astronomy

Oct. 19, 2012 Rise Set
Actual Time 7:28 AM CDT 6:23 PM CDT
Civil Twilight 7:00 AM CDT 6:51 PM CDT
Nautical Twilight 6:28 AM CDT 7:24 PM CDT
Astronomical Twilight 5:56 AM CDT 7:56 PM CDT
Moon 12:14 PM CDT (10/19) 10:00 PM CDT (10/19)
Length of Visible Light 11h 51m
Length of Day
10h 55m
Waxing Crescent, 24% of the Moon is Illuminated
Oct 19
Waxing Crescent
Oct 21
First Quarter
Oct 29
Full
Nov 6
Last Quarter
Nov 13
New

Hourly Weather History & Observations

Time (CDT) Temp. Windchill Dew Point Humidity Pressure Visibility Wind Dir Wind Speed Gust Speed Precip Events Conditions
1:15 AM 44.8 °F 38.0 °F 42.1 °F 90% 29.44 in 10.0 mi West 15.0 mph 25.3 mph N/A   Overcast
1:35 AM 44.6 °F 38.1 °F 41.7 °F 90% 29.45 in 10.0 mi WNW 13.8 mph 20.7 mph N/A   Overcast
1:55 AM 44.2 °F 38.0 °F 41.2 °F 89% 29.45 in 10.0 mi WNW 12.7 mph 26.5 mph N/A   Overcast
2:15 AM 44.1 °F 37.7 °F 41.0 °F 89% 29.45 in 10.0 mi West 12.7 mph 20.7 mph N/A   Overcast
2:35 AM 44.1 °F 37.7 °F 40.8 °F 88% 29.46 in 10.0 mi WNW 12.7 mph 23.0 mph N/A   Overcast
2:55 AM 43.9 °F 36.5 °F 40.8 °F 89% 29.46 in 10.0 mi West 16.1 mph - N/A   Overcast
3:15 AM 43.7 °F 37.7 °F 41.0 °F 90% 29.46 in 10.0 mi WNW 11.5 mph 16.1 mph N/A   Overcast
3:35 AM 43.7 °F 36.9 °F 41.0 °F 90% 29.46 in 10.0 mi West 13.8 mph 19.6 mph N/A   Overcast
3:55 AM 43.5 °F 37.5 °F 41.0 °F 91% 29.46 in 10.0 mi West 11.5 mph - N/A   Overcast
4:15 AM 43.3 °F 37.2 °F 41.4 °F 93% 29.47 in 7.0 mi WNW 11.5 mph 20.7 mph N/A   Light Drizzle
4:35 AM 43.3 °F 37.2 °F 41.9 °F 95% 29.47 in 7.0 mi WNW 11.5 mph - N/A   Overcast
4:55 AM 43.3 °F 37.2 °F 41.9 °F 95% 29.48 in 5.0 mi WNW 11.5 mph - N/A Rain Light Rain
5:15 AM 43.7 °F 38.6 °F 42.3 °F 95% 29.48 in 5.0 mi WNW 9.2 mph - N/A Rain Light Rain
5:35 AM 43.7 °F 37.3 °F 42.4 °F 95% 29.49 in 7.0 mi WNW 12.7 mph 16.1 mph N/A Rain Light Rain
5:55 AM 44.1 °F 38.6 °F 42.8 °F 95% 29.50 in 10.0 mi WNW 10.4 mph - N/A   Overcast
6:15 AM 44.2 °F 38.0 °F 43.0 °F 95% 29.51 in 7.0 mi WNW 12.7 mph - N/A   Overcast
6:35 AM 44.6 °F 39.7 °F 43.5 °F 96% 29.51 in 5.0 mi WNW 9.2 mph - N/A   Overcast
6:55 AM 44.8 °F 39.4 °F 43.7 °F 96% 29.52 in 7.0 mi NW 10.4 mph - N/A   Overcast
7:15 AM 45.0 °F 39.7 °F 43.9 °F 96% 29.53 in 7.0 mi WNW 10.4 mph - N/A   Overcast
7:35 AM 45.0 °F 39.7 °F 43.9 °F 96% 29.54 in 5.0 mi NW 10.4 mph - N/A   Overcast
7:55 AM 45.1 °F 40.3 °F 44.1 °F 96% 29.54 in 1.8 mi NW 9.2 mph - N/A   Overcast
8:15 AM 45.5 °F 41.3 °F 44.2 °F 95% 29.56 in 4.0 mi NW 8.1 mph - N/A   Overcast
8:35 AM 45.5 °F 41.3 °F 44.4 °F 96% 29.57 in 7.0 mi NW 8.1 mph - N/A   Overcast
8:55 AM 46.2 °F 42.2 °F 44.6 °F 94% 29.58 in 7.0 mi NW 8.1 mph - N/A   Overcast
9:15 AM 46.9 °F - 44.6 °F 92% 29.59 in 10.0 mi NW 10.4 mph - N/A   Overcast
9:35 AM 47.1 °F - 44.2 °F 90% 29.59 in 10.0 mi NW 11.5 mph - N/A   Mostly Cloudy
9:55 AM 48.7 °F - 43.7 °F 83% 29.60 in 10.0 mi NW 13.8 mph 17.3 mph N/A   Scattered Clouds
10:15 AM 47.8 °F - 43.3 °F 84% 29.61 in 10.0 mi WNW 8.1 mph 16.1 mph N/A   Scattered Clouds
10:35 AM 49.3 °F - 43.3 °F 80% 29.62 in 10.0 mi WNW 11.5 mph - N/A   Mostly Cloudy
10:55 AM 50.0 °F - 43.2 °F 77% 29.63 in 10.0 mi WNW 13.8 mph - N/A   Overcast
11:15 AM 49.3 °F - 42.3 °F 77% 29.64 in 10.0 mi WNW 13.8 mph 17.3 mph N/A   Overcast
11:35 AM 50.4 °F - 42.4 °F 74% 29.65 in 10.0 mi WNW 13.8 mph 19.6 mph N/A   Overcast
11:55 AM 51.1 °F - 43.2 °F 74% 29.66 in 10.0 mi West 13.8 mph 25.3 mph N/A   Overcast
12:15 PM 49.8 °F - 43.9 °F 80% 29.66 in 7.0 mi WNW 11.5 mph - N/A   Mostly Cloudy
12:35 PM 48.9 °F - 46.6 °F 92% 29.66 in 2.0 mi WNW 8.1 mph - N/A   Light Drizzle
12:55 PM 48.7 °F - 46.2 °F 91% 29.66 in 5.0 mi WNW 13.8 mph 17.3 mph N/A   Overcast
1:15 PM 49.3 °F - 45.3 °F 86% 29.66 in 10.0 mi WNW 16.1 mph 21.9 mph N/A   Overcast
1:35 PM 51.1 °F - 45.9 °F 82% 29.65 in 10.0 mi WNW 10.4 mph 21.9 mph N/A   Overcast
1:55 PM 51.3 °F - 45.7 °F 81% 29.65 in 10.0 mi West 11.5 mph - N/A   Overcast
2:15 PM 49.6 °F - 45.0 °F 84% 29.66 in 10.0 mi West 11.5 mph - N/A   Overcast
2:35 PM 49.6 °F - 43.9 °F 81% 29.66 in 10.0 mi WNW 13.8 mph 17.3 mph N/A   Overcast
2:55 PM 49.5 °F - 43.7 °F 81% 29.66 in 10.0 mi WNW 15.0 mph - N/A   Overcast
3:15 PM 49.1 °F - 43.5 °F 81% 29.67 in 10.0 mi WNW 11.5 mph - N/A   Overcast
3:35 PM 48.4 °F - 43.2 °F 82% 29.68 in 7.0 mi WNW 11.5 mph 19.6 mph N/A   Overcast
3:55 PM 47.5 °F - 44.2 °F 89% 29.68 in 4.0 mi WNW 13.8 mph 19.6 mph N/A   Drizzle
4:15 PM 47.5 °F - 44.4 °F 89% 29.68 in 5.0 mi WNW 13.8 mph 18.4 mph N/A   Mostly Cloudy
4:35 PM 47.5 °F - 44.6 °F 90% 29.69 in 10.0 mi WNW 12.7 mph 20.7 mph N/A   Mostly Cloudy
4:55 PM 47.7 °F - 44.4 °F 89% 29.69 in 10.0 mi West 12.7 mph - N/A   Overcast
5:15 PM 47.5 °F - 44.2 °F 89% 29.69 in 7.0 mi West 12.7 mph 16.1 mph N/A   Overcast
5:35 PM 47.5 °F - 44.2 °F 89% 29.70 in 7.0 mi WNW 13.8 mph 20.7 mph N/A   Overcast
5:55 PM 46.9 °F - 44.1 °F 90% 29.71 in 7.0 mi WNW 16.1 mph 25.3 mph N/A   Overcast
6:15 PM 46.6 °F - 44.1 °F 91% 29.71 in 2.5 mi WNW 13.8 mph 23.0 mph N/A   Light Drizzle
6:35 PM 46.4 °F 40.7 °F 44.1 °F 92% 29.72 in 7.0 mi WNW 12.7 mph - N/A   Overcast
6:55 PM 46.6 °F - 43.7 °F 90% 29.73 in 10.0 mi WNW 11.5 mph 17.3 mph N/A   Overcast
7:15 PM 46.8 °F - 43.7 °F 89% 29.73 in 10.0 mi WNW 11.5 mph 24.2 mph N/A   Overcast
7:35 PM 46.8 °F - 43.5 °F 88% 29.74 in 10.0 mi WNW 13.8 mph 24.2 mph N/A   Overcast
7:55 PM 46.8 °F - 43.7 °F 89% 29.74 in 10.0 mi WNW 8.1 mph - N/A   Overcast
8:15 PM 46.8 °F - 43.3 °F 88% 29.74 in 10.0 mi WNW 13.8 mph 17.3 mph N/A   Overcast
8:35 PM 46.6 °F - 43.2 °F 88% 29.75 in 10.0 mi WNW 10.4 mph 16.1 mph N/A   Overcast
8:55 PM 46.8 °F - 43.0 °F 87% 29.75 in 10.0 mi WNW 15.0 mph - N/A   Overcast
9:15 PM 46.6 °F - 42.8 °F 87% 29.76 in 10.0 mi WNW 11.5 mph - N/A   Overcast
9:35 PM 46.8 °F - 42.8 °F 86% 29.76 in 10.0 mi WNW 11.5 mph 18.4 mph N/A   Overcast
9:55 PM 46.8 °F - 42.8 °F 86% 29.77 in 10.0 mi WNW 10.4 mph 18.4 mph N/A   Overcast
10:15 PM 46.6 °F - 42.8 °F 87% 29.77 in 10.0 mi WNW 11.5 mph 19.6 mph N/A   Overcast
10:35 PM 46.4 °F 40.1 °F 42.8 °F 87% 29.77 in 10.0 mi WNW 15.0 mph - N/A   Overcast
10:55 PM 46.4 °F 41.1 °F 42.8 °F 87% 29.77 in 7.0 mi WNW 11.5 mph 18.4 mph N/A   Mostly Cloudy
11:15 PM 45.7 °F 40.6 °F 43.2 °F 91% 29.77 in 7.0 mi WNW 10.4 mph - N/A   Overcast
11:35 PM 46.0 °F 41.9 °F 43.0 °F 89% 29.77 in 10.0 mi WNW 8.1 mph - N/A   Overcast
11:55 PM 46.4 °F 42.4 °F 42.8 °F 87% 29.77 in 10.0 mi WNW 8.1 mph - N/A   Overcast